createdAt,value
2018-12-11T00:00:24.029Z,9.27
2018-12-11T00:01:23.970Z,9.23
2018-12-11T00:02:23.910Z,9.25
2018-12-11T00:03:23.852Z,9.30
2018-12-11T00:04:23.793Z,9.18
2018-12-11T00:05:23.733Z,9.23
2018-12-11T00:06:23.675Z,9.27
2018-12-11T00:07:23.615Z,9.24
2018-12-11T00:08:23.555Z,9.18
2018-12-11T00:09:23.503Z,9.23
2018-12-11T00:10:23.435Z,9.34
2018-12-11T00:11:23.376Z,9.28
2018-12-11T00:12:23.317Z,9.18
2018-12-11T00:13:23.258Z,9.16
2018-12-11T00:14:23.201Z,9.16
2018-12-11T00:15:23.141Z,9.23
2018-12-11T00:16:23.080Z,9.24
2018-12-11T00:17:23.023Z,9.24
2018-12-11T00:18:22.962Z,9.24
2018-12-11T00:19:22.903Z,9.24
2018-12-11T00:20:22.842Z,9.24
2018-12-11T00:21:22.783Z,9.21
2018-12-11T00:22:22.731Z,9.25
2018-12-11T00:23:22.664Z,9.15
2018-12-11T00:24:22.606Z,9.25
2018-12-11T00:25:22.548Z,9.31
2018-12-11T00:26:22.488Z,9.27
2018-12-11T00:27:22.428Z,9.21
2018-12-11T00:28:22.367Z,9.28
2018-12-11T00:29:22.309Z,9.24
2018-12-11T00:30:22.251Z,9.21
2018-12-11T00:31:22.190Z,9.21
2018-12-11T00:32:22.131Z,9.18
2018-12-11T00:33:22.074Z,9.21
2018-12-11T00:34:22.015Z,9.30
2018-12-11T00:35:21.959Z,9.15
2018-12-11T00:36:21.897Z,9.24
2018-12-11T00:37:21.838Z,9.20
2018-12-11T00:38:21.777Z,9.16
2018-12-11T00:39:21.716Z,9.21
2018-12-11T00:40:21.657Z,9.16
2018-12-11T00:41:21.597Z,9.21
2018-12-11T00:42:21.538Z,9.16
2018-12-11T00:43:21.478Z,9.16
2018-12-11T00:44:21.423Z,9.16
2018-12-11T00:45:21.362Z,9.20
2018-12-11T00:46:21.301Z,9.13
2018-12-11T00:47:21.241Z,9.20
2018-12-11T00:48:21.182Z,9.15
2018-12-11T00:49:21.123Z,9.21
2018-12-11T00:50:21.065Z,9.24
2018-12-11T00:51:21.005Z,9.23
2018-12-11T00:52:20.949Z,9.13
2018-12-11T00:53:20.886Z,9.21
2018-12-11T00:54:20.829Z,9.18
2018-12-11T00:55:20.767Z,9.13
2018-12-11T00:56:20.708Z,9.16
2018-12-11T00:57:31.811Z,9.21
2018-12-11T00:58:20.591Z,9.13
2018-12-11T00:59:20.529Z,9.20
2018-12-11T01:00:20.471Z,9.20
2018-12-11T01:01:20.411Z,9.13
2018-12-11T01:02:20.353Z,9.18
2018-12-11T01:03:20.293Z,9.21
2018-12-11T01:04:20.235Z,9.18
2018-12-11T01:05:20.174Z,9.18
2018-12-11T01:06:20.114Z,9.15
2018-12-11T01:07:20.054Z,9.15
2018-12-11T01:08:19.996Z,9.15
2018-12-11T01:09:19.939Z,9.20
2018-12-11T01:10:19.878Z,9.16
2018-12-11T01:11:19.817Z,9.24
2018-12-11T01:12:19.762Z,9.15
2018-12-11T01:13:19.707Z,9.15
2018-12-11T01:14:19.746Z,9.15
2018-12-11T01:15:19.582Z,9.18
2018-12-11T01:16:19.523Z,9.16
2018-12-11T01:17:19.461Z,9.18
2018-12-11T01:18:19.404Z,9.10
2018-12-11T01:19:19.344Z,9.16
2018-12-11T01:20:19.285Z,9.13
2018-12-11T01:21:19.225Z,9.16
2018-12-11T01:22:19.165Z,9.12
2018-12-11T01:23:19.106Z,9.10
2018-12-11T01:24:19.046Z,9.15
2018-12-11T01:25:18.987Z,9.10
2018-12-11T01:26:18.928Z,9.15
2018-12-11T01:27:18.868Z,9.13
2018-12-11T01:28:18.809Z,9.16
2018-12-11T01:29:18.751Z,9.15
2018-12-11T01:30:19.523Z,9.13
2018-12-11T01:31:18.630Z,9.16
2018-12-11T01:32:18.573Z,9.13
2018-12-11T01:33:18.513Z,9.12
2018-12-11T01:34:18.453Z,9.15
2018-12-11T01:35:18.394Z,9.10
2018-12-11T01:36:18.335Z,9.12
2018-12-11T01:37:18.282Z,9.12
2018-12-11T01:38:18.215Z,9.13
2018-12-11T01:39:18.155Z,9.12
2018-12-11T01:40:18.098Z,9.10
2018-12-11T01:41:18.037Z,9.13
2018-12-11T01:42:17.979Z,9.12
2018-12-11T01:43:17.917Z,9.10
2018-12-11T01:44:17.859Z,9.10
2018-12-11T01:45:17.799Z,9.06
2018-12-11T01:46:17.741Z,9.10
2018-12-11T01:47:17.680Z,9.09
2018-12-11T01:48:17.621Z,9.02
2018-12-11T01:49:17.565Z,9.21
2018-12-11T01:50:17.504Z,9.13
2018-12-11T01:51:17.446Z,9.12
2018-12-11T01:52:17.384Z,9.10
2018-12-11T01:53:17.324Z,9.20
2018-12-11T01:54:17.265Z,9.09
2018-12-11T01:55:17.205Z,9.04
2018-12-11T01:56:17.147Z,9.02
2018-12-11T01:57:17.186Z,9.18
2018-12-11T01:58:17.033Z,9.10
2018-12-11T01:59:16.968Z,9.06
2018-12-11T02:00:16.911Z,9.10
2018-12-11T02:01:16.849Z,9.10
2018-12-11T02:02:16.791Z,9.06
2018-12-11T02:03:16.729Z,9.15
2018-12-11T02:04:16.670Z,9.09
2018-12-11T02:05:16.730Z,9.10
2018-12-11T02:06:16.552Z,9.04
2018-12-11T02:07:16.493Z,9.12
2018-12-11T02:08:16.434Z,9.02
2018-12-11T02:09:16.379Z,9.13
2018-12-11T02:10:16.319Z,9.10
2018-12-11T02:11:16.257Z,9.10
2018-12-11T02:12:16.196Z,9.10
2018-12-11T02:13:16.137Z,9.05
2018-12-11T02:14:16.078Z,9.10
2018-12-11T02:15:16.017Z,9.06
2018-12-11T02:16:15.958Z,9.13
2018-12-11T02:17:15.900Z,9.10
2018-12-11T02:18:15.839Z,9.12
2018-12-11T02:19:15.780Z,9.13
2018-12-11T02:20:15.720Z,9.10
2018-12-11T02:21:15.664Z,9.09
2018-12-11T02:22:15.603Z,9.15
2018-12-11T02:23:15.545Z,9.04
2018-12-11T02:24:15.483Z,9.04
2018-12-11T02:25:15.424Z,9.09
2018-12-11T02:26:15.365Z,9.10
2018-12-11T02:27:15.303Z,9.13
2018-12-11T02:28:15.248Z,9.09
2018-12-11T02:29:15.187Z,9.09
2018-12-11T02:30:15.130Z,9.10
2018-12-11T02:31:15.070Z,9.09
2018-12-11T02:32:15.007Z,9.02
2018-12-11T02:33:14.948Z,9.09
2018-12-11T02:34:14.955Z,9.04
2018-12-11T02:35:14.829Z,9.13
2018-12-11T02:36:14.772Z,9.10
2018-12-11T02:37:14.713Z,9.06
2018-12-11T02:38:14.653Z,9.15
2018-12-11T02:39:14.596Z,9.10
2018-12-11T02:40:14.533Z,9.10
2018-12-11T02:41:14.474Z,9.10
2018-12-11T02:42:14.414Z,9.13
2018-12-11T02:43:14.354Z,9.09
2018-12-11T02:44:14.295Z,9.02
2018-12-11T02:45:14.236Z,8.99
2018-12-11T02:46:14.176Z,9.04
2018-12-11T02:47:14.119Z,9.09
2018-12-11T02:48:14.058Z,9.15
2018-12-11T02:49:14.000Z,9.05
2018-12-11T02:50:13.939Z,9.04
2018-12-11T02:51:13.882Z,9.12
2018-12-11T02:52:13.824Z,9.12
2018-12-11T02:53:13.759Z,9.06
2018-12-11T02:54:13.700Z,9.04
2018-12-11T02:55:13.641Z,9.06
2018-12-11T02:56:13.592Z,9.05
2018-12-11T02:57:13.526Z,9.04
2018-12-11T02:58:13.463Z,9.05
2018-12-11T02:59:13.402Z,9.13
2018-12-11T03:00:13.347Z,9.10
2018-12-11T03:01:13.286Z,9.04
2018-12-11T03:02:13.226Z,9.13
2018-12-11T03:03:13.166Z,9.13
2018-12-11T03:04:13.105Z,9.02
2018-12-11T03:05:13.048Z,9.09
2018-12-11T03:06:12.990Z,9.12
2018-12-11T03:07:12.927Z,9.12
2018-12-11T03:08:12.869Z,9.06
2018-12-11T03:09:12.810Z,9.09
2018-12-11T03:10:12.750Z,9.12
2018-12-11T03:11:12.797Z,9.04
2018-12-11T03:12:12.630Z,9.12
2018-12-11T03:13:12.571Z,9.12
2018-12-11T03:14:12.513Z,9.13
2018-12-11T03:15:12.451Z,8.97
2018-12-11T03:16:12.397Z,9.12
2018-12-11T03:17:12.333Z,9.09
2018-12-11T03:18:12.273Z,9.12
2018-12-11T03:19:12.223Z,9.02
2018-12-11T03:20:12.156Z,8.97
2018-12-11T03:21:12.098Z,9.05
2018-12-11T03:22:12.035Z,9.09
2018-12-11T03:23:11.979Z,9.13
2018-12-11T03:24:11.916Z,9.10
2018-12-11T03:25:11.857Z,8.96
2018-12-11T03:26:11.797Z,9.12
2018-12-11T03:27:11.743Z,9.05
2018-12-11T03:28:11.678Z,9.09
2018-12-11T03:29:11.630Z,9.05
2018-12-11T03:30:11.561Z,9.09
2018-12-11T03:31:11.505Z,9.09
2018-12-11T03:32:11.441Z,9.09
2018-12-11T03:33:11.382Z,8.96
2018-12-11T03:34:11.321Z,9.09
2018-12-11T03:35:11.264Z,9.02
2018-12-11T03:36:11.202Z,9.05
2018-12-11T03:37:11.144Z,9.05
2018-12-11T03:38:11.084Z,9.01
2018-12-11T03:39:11.025Z,8.94
2018-12-11T03:40:10.969Z,9.01
2018-12-11T03:41:10.909Z,9.06
2018-12-11T03:42:10.846Z,9.01
2018-12-11T03:43:10.786Z,8.99
2018-12-11T03:44:10.726Z,9.01
2018-12-11T03:45:10.668Z,9.02
2018-12-11T03:46:10.611Z,9.02
2018-12-11T03:47:10.548Z,9.02
2018-12-11T03:48:10.489Z,9.02
2018-12-11T03:49:10.430Z,9.04
2018-12-11T03:50:10.371Z,8.97
2018-12-11T03:51:10.310Z,8.97
2018-12-11T03:52:10.255Z,8.99
2018-12-11T03:53:10.192Z,9.02
2018-12-11T03:54:10.132Z,8.96
2018-12-11T03:55:10.071Z,9.06
2018-12-11T03:56:10.012Z,8.97
2018-12-11T03:57:09.953Z,9.02
2018-12-11T03:58:09.895Z,8.99
2018-12-11T03:59:09.835Z,8.97
2018-12-11T04:00:09.776Z,8.99
2018-12-11T04:01:09.717Z,8.99
2018-12-11T04:02:09.659Z,8.99
2018-12-11T04:03:09.604Z,8.99
2018-12-11T04:04:09.546Z,9.06
2018-12-11T04:05:09.478Z,9.05
2018-12-11T04:06:09.418Z,8.96
2018-12-11T04:07:09.358Z,8.97
2018-12-11T04:08:09.303Z,8.99
2018-12-11T04:09:09.240Z,9.01
2018-12-11T04:10:09.181Z,8.99
2018-12-11T04:11:09.120Z,8.96
2018-12-11T04:12:09.061Z,9.04
2018-12-11T04:13:09.003Z,8.99
2018-12-11T04:14:08.942Z,8.96
2018-12-11T04:15:08.881Z,8.99
2018-12-11T04:16:08.825Z,9.04
2018-12-11T04:17:08.764Z,9.01
2018-12-11T04:18:08.705Z,9.04
2018-12-11T04:19:08.644Z,9.01
2018-12-11T04:20:09.072Z,8.97
2018-12-11T04:21:08.578Z,8.99
2018-12-11T04:22:08.467Z,8.97
2018-12-11T04:23:08.407Z,8.94
2018-12-11T04:24:08.347Z,8.97
2018-12-11T04:25:08.295Z,9.01
2018-12-11T04:26:08.250Z,8.99
2018-12-11T04:27:08.168Z,8.96
2018-12-11T04:28:08.112Z,8.97
2018-12-11T04:29:08.051Z,8.99
2018-12-11T04:30:07.990Z,9.02
2018-12-11T04:31:07.931Z,8.97
2018-12-11T04:32:07.874Z,8.99
2018-12-11T04:33:07.830Z,8.96
2018-12-11T04:34:07.756Z,8.97
2018-12-11T04:35:07.692Z,8.99
2018-12-11T04:36:07.632Z,8.99
2018-12-11T04:37:07.582Z,8.97
2018-12-11T04:38:07.522Z,8.93
2018-12-11T04:39:07.454Z,8.97
2018-12-11T04:40:07.394Z,9.02
2018-12-11T04:41:07.335Z,8.97
2018-12-11T04:42:07.278Z,8.93
2018-12-11T04:43:07.215Z,8.97
2018-12-11T04:44:07.157Z,9.02
2018-12-11T04:45:07.096Z,8.97
2018-12-11T04:46:07.039Z,9.02
2018-12-11T04:47:06.977Z,8.96
2018-12-11T04:48:06.921Z,8.94
2018-12-11T04:49:06.858Z,9.01
2018-12-11T04:50:06.799Z,8.97
2018-12-11T04:51:06.738Z,8.94
2018-12-11T04:52:06.680Z,9.02
2018-12-11T04:53:06.620Z,8.99
2018-12-11T04:54:07.426Z,8.97
2018-12-11T04:55:06.500Z,8.97
2018-12-11T04:56:06.442Z,8.99
2018-12-11T04:57:06.381Z,9.04
2018-12-11T04:58:06.323Z,8.96
2018-12-11T04:59:06.267Z,8.94
2018-12-11T05:00:06.250Z,8.91
2018-12-11T05:01:06.144Z,8.94
2018-12-11T05:02:06.118Z,8.96
2018-12-11T05:03:06.024Z,9.01
2018-12-11T05:04:05.965Z,9.01
2018-12-11T05:05:05.906Z,8.96
2018-12-11T05:06:05.846Z,8.96
2018-12-11T05:07:05.786Z,8.93
2018-12-11T05:08:05.727Z,8.91
2018-12-11T05:09:20.568Z,9.01
2018-12-11T05:10:05.608Z,8.99
2018-12-11T05:11:05.550Z,9.04
2018-12-11T05:12:05.489Z,8.96
2018-12-11T05:13:05.429Z,8.99
2018-12-11T05:14:05.369Z,8.97
2018-12-11T05:15:05.308Z,8.99
2018-12-11T05:16:05.250Z,8.94
2018-12-11T05:17:05.195Z,8.93
2018-12-11T05:18:05.135Z,8.96
2018-12-11T05:19:05.075Z,8.91
2018-12-11T05:20:05.013Z,8.94
2018-12-11T05:21:04.952Z,8.96
2018-12-11T05:22:04.893Z,8.96
2018-12-11T05:23:04.832Z,8.96
2018-12-11T05:24:04.773Z,8.96
2018-12-11T05:25:04.713Z,8.96
2018-12-11T05:26:04.655Z,8.99
2018-12-11T05:27:04.598Z,8.96
2018-12-11T05:28:04.535Z,8.93
2018-12-11T05:29:04.476Z,8.94
2018-12-11T05:30:04.429Z,8.90
2018-12-11T05:31:04.360Z,8.86
2018-12-11T05:32:04.299Z,8.96
2018-12-11T05:33:04.237Z,8.87
2018-12-11T05:34:04.187Z,8.97
2018-12-11T05:35:04.118Z,8.90
2018-12-11T05:36:04.059Z,8.93
2018-12-11T05:37:03.999Z,8.87
2018-12-11T05:38:03.939Z,8.90
2018-12-11T05:39:03.880Z,8.87
2018-12-11T05:40:03.823Z,8.96
2018-12-11T05:41:03.767Z,8.86
2018-12-11T05:42:03.735Z,8.86
2018-12-11T05:43:03.642Z,8.93
2018-12-11T05:44:03.582Z,8.99
2018-12-11T05:45:03.525Z,8.93
2018-12-11T05:46:03.463Z,8.97
2018-12-11T05:47:03.402Z,8.84
2018-12-11T05:48:03.343Z,8.87
2018-12-11T05:49:03.287Z,8.90
2018-12-11T05:50:03.224Z,8.83
2018-12-11T05:51:03.171Z,8.84
2018-12-11T05:52:03.105Z,8.84
2018-12-11T05:53:03.052Z,8.93
2018-12-11T05:54:02.986Z,8.81
2018-12-11T05:55:02.926Z,8.86
2018-12-11T05:56:02.868Z,8.84
2018-12-11T05:57:02.806Z,8.83
2018-12-11T05:58:02.824Z,8.87
2018-12-11T05:59:02.691Z,8.91
2018-12-11T06:00:02.636Z,8.90
2018-12-11T06:01:02.570Z,8.97
2018-12-11T06:02:17.082Z,8.90
2018-12-11T06:03:02.452Z,8.84
2018-12-11T06:04:02.517Z,8.86
2018-12-11T06:05:02.329Z,8.96
2018-12-11T06:06:02.274Z,8.87
2018-12-11T06:07:02.210Z,8.87
2018-12-11T06:08:02.150Z,8.84
2018-12-11T06:09:02.091Z,8.87
2018-12-11T06:10:02.033Z,8.84
2018-12-11T06:11:01.971Z,8.91
2018-12-11T06:12:01.917Z,8.86
2018-12-11T06:13:01.855Z,8.88
2018-12-11T06:14:01.794Z,8.79
2018-12-11T06:15:01.737Z,8.86
2018-12-11T06:16:01.673Z,8.90
2018-12-11T06:17:01.616Z,8.90
2018-12-11T06:18:01.557Z,8.90
2018-12-11T06:19:01.495Z,8.93
2018-12-11T06:20:01.440Z,8.87
2018-12-11T06:21:01.377Z,8.79
2018-12-11T06:22:01.317Z,8.84
2018-12-11T06:23:01.258Z,8.90
2018-12-11T06:24:01.197Z,8.83
2018-12-11T06:25:01.193Z,8.91
2018-12-11T06:26:01.077Z,8.90
2018-12-11T06:27:01.020Z,8.90
2018-12-11T06:28:00.959Z,8.88
2018-12-11T06:29:00.898Z,8.84
2018-12-11T06:30:00.840Z,8.94
2018-12-11T06:31:00.779Z,8.94
2018-12-11T06:32:00.719Z,8.84
2018-12-11T06:33:00.660Z,8.91
2018-12-11T06:34:00.604Z,8.84
2018-12-11T06:35:00.541Z,8.87
2018-12-11T06:36:00.485Z,8.91
2018-12-11T06:37:00.424Z,8.87
2018-12-11T06:38:00.362Z,8.83
2018-12-11T06:39:00.303Z,8.86
2018-12-11T06:40:00.243Z,8.93
2018-12-11T06:41:00.189Z,8.84
2018-12-11T06:42:00.124Z,8.87
2018-12-11T06:43:00.063Z,8.87
2018-12-11T06:44:00.003Z,8.90
2018-12-11T06:44:59.944Z,8.84
2018-12-11T06:45:59.885Z,8.87
2018-12-11T06:46:59.826Z,8.87
2018-12-11T06:47:59.764Z,8.90
2018-12-11T06:48:59.706Z,8.84
2018-12-11T06:49:59.647Z,8.84
2018-12-11T06:50:59.586Z,8.86
2018-12-11T06:51:59.525Z,8.81
2018-12-11T06:52:59.467Z,8.84
2018-12-11T06:53:59.409Z,8.87
2018-12-11T06:54:59.350Z,8.86
2018-12-11T06:55:59.288Z,8.86
2018-12-11T06:56:59.233Z,8.86
2018-12-11T06:57:59.172Z,8.86
2018-12-11T06:58:59.118Z,8.87
2018-12-11T06:59:59.049Z,8.81
2018-12-11T07:00:58.989Z,8.87
2018-12-11T07:01:58.930Z,8.83
2018-12-11T07:02:58.870Z,8.81
2018-12-11T07:03:58.811Z,8.90
2018-12-11T07:04:58.755Z,8.87
2018-12-11T07:05:58.694Z,8.90
2018-12-11T07:06:58.631Z,8.83
2018-12-11T07:07:58.576Z,8.88
2018-12-11T07:08:58.514Z,8.84
2018-12-11T07:09:58.454Z,8.84
2018-12-11T07:10:58.393Z,8.88
2018-12-11T07:11:58.334Z,8.87
2018-12-11T07:12:58.277Z,8.86
2018-12-11T07:13:58.215Z,8.86
2018-12-11T07:14:58.154Z,8.83
2018-12-11T07:15:58.095Z,8.83
2018-12-11T07:16:58.035Z,8.86
2018-12-11T07:17:57.977Z,8.83
2018-12-11T07:18:57.915Z,8.87
2018-12-11T07:19:57.857Z,8.84
2018-12-11T07:20:57.803Z,8.83
2018-12-11T07:21:57.737Z,8.81
2018-12-11T07:22:57.678Z,8.86
2018-12-11T07:23:57.621Z,8.86
2018-12-11T07:24:57.558Z,8.83
2018-12-11T07:25:57.501Z,8.83
2018-12-11T07:26:57.440Z,8.86
2018-12-11T07:27:57.379Z,8.86
2018-12-11T07:28:57.341Z,8.83
2018-12-11T07:29:57.260Z,8.88
2018-12-11T07:30:57.203Z,8.87
2018-12-11T07:31:57.141Z,8.84
2018-12-11T07:32:57.079Z,8.83
2018-12-11T07:33:57.024Z,8.86
2018-12-11T07:34:56.961Z,8.86
2018-12-11T07:35:56.901Z,8.81
2018-12-11T07:36:56.843Z,8.84
2018-12-11T07:37:56.782Z,8.83
2018-12-11T07:38:56.721Z,8.83
2018-12-11T07:39:56.665Z,8.83
2018-12-11T07:40:56.602Z,8.86
2018-12-11T07:41:56.543Z,8.84
2018-12-11T07:42:56.483Z,8.81
2018-12-11T07:43:56.423Z,8.86
2018-12-11T07:44:56.365Z,8.88
2018-12-11T07:45:56.305Z,8.86
2018-12-11T07:46:56.244Z,8.81
2018-12-11T07:47:56.188Z,8.86
2018-12-11T07:48:56.126Z,8.84
2018-12-11T07:49:56.066Z,8.87
2018-12-11T07:50:56.009Z,8.90
2018-12-11T07:51:55.947Z,8.83
2018-12-11T07:52:55.886Z,8.86
2018-12-11T07:53:55.827Z,8.87
2018-12-11T07:54:55.769Z,8.83
2018-12-11T07:56:00.232Z,8.87
2018-12-11T07:56:55.648Z,8.84
2018-12-11T07:57:55.591Z,8.81
2018-12-11T07:58:55.537Z,8.81
2018-12-11T07:59:55.472Z,8.86
2018-12-11T08:00:55.411Z,8.84
2018-12-11T08:01:55.351Z,8.84
2018-12-11T08:02:55.290Z,8.84
2018-12-11T08:03:56.122Z,8.86
2018-12-11T08:04:55.170Z,8.83
2018-12-11T08:05:55.116Z,8.84
2018-12-11T08:06:55.051Z,8.86
2018-12-11T08:07:54.995Z,8.79
2018-12-11T08:08:54.932Z,8.81
2018-12-11T08:09:54.873Z,8.81
2018-12-11T08:10:54.816Z,8.83
2018-12-11T08:11:54.753Z,8.81
2018-12-11T08:12:54.695Z,8.83
2018-12-11T08:13:54.639Z,8.84
2018-12-11T08:14:54.574Z,8.87
2018-12-11T08:15:54.514Z,8.84
2018-12-11T08:16:54.459Z,8.81
2018-12-11T08:17:54.410Z,8.87
2018-12-11T08:18:54.335Z,8.84
2018-12-11T08:19:54.280Z,8.81
2018-12-11T08:20:54.216Z,8.83
2018-12-11T08:21:54.157Z,8.78
2018-12-11T08:22:54.098Z,8.81
2018-12-11T08:23:54.037Z,8.87
2018-12-11T08:24:53.977Z,8.81
2018-12-11T08:25:53.923Z,8.84
2018-12-11T08:26:54.607Z,8.84
2018-12-11T08:27:53.800Z,8.87
2018-12-11T08:28:53.739Z,8.83
2018-12-11T08:29:53.678Z,8.83
2018-12-11T08:30:53.618Z,8.87
2018-12-11T08:31:53.560Z,8.83
2018-12-11T08:32:53.500Z,8.79
2018-12-11T08:33:53.443Z,8.84
2018-12-11T08:34:53.380Z,8.83
2018-12-11T08:35:53.320Z,8.79
2018-12-11T08:36:53.269Z,8.84
2018-12-11T08:37:53.202Z,8.78
2018-12-11T08:38:53.142Z,8.87
2018-12-11T08:39:53.082Z,8.88
2018-12-11T08:40:53.023Z,8.88
2018-12-11T08:41:52.965Z,8.83
2018-12-11T08:42:52.903Z,8.79
2018-12-11T08:43:52.844Z,8.81
2018-12-11T08:44:54.299Z,8.81
2018-12-11T08:45:53.611Z,8.84
2018-12-11T08:46:52.680Z,8.81
2018-12-11T08:47:52.607Z,8.83
2018-12-11T08:48:52.546Z,8.84
2018-12-11T08:49:52.486Z,8.84
2018-12-11T08:50:52.429Z,8.86
2018-12-11T08:51:52.366Z,8.79
2018-12-11T08:52:52.307Z,8.81
2018-12-11T08:53:52.247Z,8.81
2018-12-11T08:54:52.190Z,8.79
2018-12-11T08:55:52.127Z,8.84
2018-12-11T08:56:52.068Z,8.83
2018-12-11T08:57:52.010Z,8.83
2018-12-11T08:58:51.950Z,8.81
2018-12-11T08:59:51.889Z,8.79
2018-12-11T09:00:51.830Z,8.90
2018-12-11T09:01:51.773Z,8.76
2018-12-11T09:02:51.709Z,8.87
2018-12-11T09:03:51.666Z,8.79
2018-12-11T09:04:51.591Z,8.88
2018-12-11T09:05:51.532Z,8.90
2018-12-11T09:06:51.471Z,8.83
2018-12-11T09:07:51.411Z,8.84
2018-12-11T09:08:51.353Z,8.84
2018-12-11T09:09:51.295Z,8.88
2018-12-11T09:10:51.233Z,8.86
2018-12-11T09:11:51.174Z,8.81
2018-12-11T09:12:51.113Z,8.84
2018-12-11T09:13:51.053Z,8.79
2018-12-11T09:14:50.999Z,8.83
2018-12-11T09:15:50.934Z,8.83
2018-12-11T09:16:50.876Z,8.83
2018-12-11T09:17:50.838Z,8.84
2018-12-11T09:18:50.753Z,8.79
2018-12-11T09:19:50.698Z,8.81
2018-12-11T09:20:50.635Z,8.88
2018-12-11T09:21:50.576Z,8.86
2018-12-11T09:22:50.516Z,8.78
2018-12-11T09:23:50.463Z,8.81
2018-12-11T09:24:50.396Z,8.87
2018-12-11T09:25:50.336Z,8.87
2018-12-11T09:26:50.276Z,8.79
2018-12-11T09:27:50.241Z,8.83
2018-12-11T09:28:50.157Z,8.84
2018-12-11T09:29:50.102Z,8.87
2018-12-11T09:30:50.036Z,8.84
2018-12-11T09:31:49.983Z,8.81
2018-12-11T09:32:49.923Z,8.83
2018-12-11T09:33:49.860Z,8.83
2018-12-11T09:34:49.801Z,8.84
2018-12-11T09:35:49.738Z,8.81
2018-12-11T09:36:49.680Z,8.84
2018-12-11T09:37:49.621Z,8.87
2018-12-11T09:38:49.559Z,8.81
2018-12-11T09:39:49.501Z,8.79
2018-12-11T09:40:49.442Z,8.81
2018-12-11T09:41:49.380Z,8.83
2018-12-11T09:42:49.320Z,8.76
2018-12-11T09:43:49.262Z,8.84
2018-12-11T09:44:49.207Z,8.83
2018-12-11T09:45:49.142Z,8.88
2018-12-11T09:46:49.081Z,8.86
2018-12-11T09:47:49.021Z,8.86
2018-12-11T09:48:48.964Z,8.87
2018-12-11T09:49:48.903Z,8.84
2018-12-11T09:50:48.842Z,8.81
2018-12-11T09:51:48.783Z,8.78
2018-12-11T09:52:48.726Z,8.88
2018-12-11T09:53:48.664Z,8.79
2018-12-11T09:54:48.603Z,8.84
2018-12-11T09:55:48.549Z,8.79
2018-12-11T09:56:48.491Z,8.88
2018-12-11T09:57:48.425Z,8.87
2018-12-11T09:58:48.368Z,8.83
2018-12-11T09:59:48.305Z,8.81
2018-12-11T10:00:48.249Z,8.84
2018-12-11T10:01:48.188Z,8.84
2018-12-11T10:02:48.126Z,8.79
2018-12-11T10:03:48.067Z,8.87
2018-12-11T10:04:48.006Z,8.79
2018-12-11T10:05:47.947Z,8.79
2018-12-11T10:06:47.887Z,8.83
2018-12-11T10:07:47.827Z,8.81
2018-12-11T10:08:47.768Z,8.83
2018-12-11T10:09:47.709Z,8.88
2018-12-11T10:10:47.648Z,8.83
2018-12-11T10:11:47.591Z,8.83
2018-12-11T10:12:47.529Z,8.84
2018-12-11T10:13:47.470Z,8.79
2018-12-11T10:14:47.410Z,8.83
2018-12-11T10:15:47.353Z,8.83
2018-12-11T10:16:47.289Z,8.87
2018-12-11T10:17:47.231Z,8.81
2018-12-11T10:18:47.170Z,8.87
2018-12-11T10:19:47.112Z,8.87
2018-12-11T10:20:47.140Z,8.81
2018-12-11T10:21:46.992Z,8.84
2018-12-11T10:22:46.931Z,8.86
2018-12-11T10:23:46.872Z,8.84
2018-12-11T10:24:46.812Z,8.84
2018-12-11T10:25:46.752Z,8.83
2018-12-11T10:26:46.693Z,8.84
2018-12-11T10:27:46.632Z,8.90
2018-12-11T10:28:46.573Z,8.83
2018-12-11T10:29:46.514Z,8.84
2018-12-11T10:30:46.454Z,8.93
2018-12-11T10:31:46.404Z,8.84
2018-12-11T10:32:46.361Z,8.83
2018-12-11T10:33:46.295Z,8.86
2018-12-11T10:34:46.215Z,8.88
2018-12-11T10:35:46.166Z,8.87
2018-12-11T10:36:46.106Z,8.87
2018-12-11T10:37:46.039Z,8.86
2018-12-11T10:38:45.975Z,8.84
2018-12-11T10:39:45.916Z,8.87
2018-12-11T10:40:45.868Z,8.87
2018-12-11T10:41:45.797Z,8.90
2018-12-11T10:42:45.753Z,8.86
2018-12-11T10:43:45.677Z,8.86
2018-12-11T10:44:45.617Z,8.83
2018-12-11T10:45:45.559Z,8.87
2018-12-11T10:46:45.499Z,8.87
2018-12-11T10:47:45.438Z,8.84
2018-12-11T10:48:45.379Z,8.81
2018-12-11T10:49:45.319Z,8.84
2018-12-11T10:50:45.259Z,8.87
2018-12-11T10:51:45.199Z,8.87
2018-12-11T10:52:45.140Z,8.84
2018-12-11T10:53:45.082Z,8.81
2018-12-11T10:54:45.019Z,8.87
2018-12-11T10:55:44.962Z,8.87
2018-12-11T10:56:44.903Z,8.86
2018-12-11T10:57:44.841Z,8.87
2018-12-11T10:58:44.780Z,8.84
2018-12-11T10:59:44.722Z,8.88
2018-12-11T11:00:44.662Z,8.88
2018-12-11T11:01:44.602Z,8.88
2018-12-11T11:02:44.542Z,8.84
2018-12-11T11:03:44.482Z,8.87
2018-12-11T11:04:44.427Z,8.97
2018-12-11T11:05:44.364Z,8.93
2018-12-11T11:06:44.303Z,8.90
2018-12-11T11:07:44.243Z,8.94
2018-12-11T11:08:44.218Z,8.91
2018-12-11T11:09:44.125Z,8.91
2018-12-11T11:10:44.064Z,8.86
2018-12-11T11:11:44.009Z,8.91
2018-12-11T11:12:43.947Z,8.84
2018-12-11T11:13:43.890Z,8.83
2018-12-11T11:14:43.856Z,8.88
2018-12-11T11:15:43.769Z,8.90
2018-12-11T11:16:43.712Z,8.88
2018-12-11T11:17:43.647Z,8.90
2018-12-11T11:18:43.594Z,8.90
2018-12-11T11:19:43.530Z,8.88
2018-12-11T11:20:43.469Z,8.84
2018-12-11T11:21:43.408Z,8.90
2018-12-11T11:22:43.348Z,8.87
2018-12-11T11:23:43.290Z,8.86
2018-12-11T11:24:43.230Z,8.86
2018-12-11T11:25:43.175Z,8.91
2018-12-11T11:26:43.109Z,8.86
2018-12-11T11:27:43.050Z,8.86
2018-12-11T11:28:42.994Z,8.91
2018-12-11T11:29:42.933Z,8.86
2018-12-11T11:30:42.913Z,8.97
2018-12-11T11:31:42.812Z,8.83
2018-12-11T11:32:42.756Z,8.86
2018-12-11T11:33:42.692Z,8.87
2018-12-11T11:34:42.631Z,8.91
2018-12-11T11:35:42.572Z,8.87
2018-12-11T11:36:42.512Z,8.86
2018-12-11T11:37:42.453Z,8.87
2018-12-11T11:38:42.392Z,8.84
2018-12-11T11:39:42.333Z,8.94
2018-12-11T11:40:42.274Z,8.99
2018-12-11T11:41:42.219Z,9.01
2018-12-11T11:42:42.156Z,8.96
2018-12-11T11:43:42.095Z,8.99
2018-12-11T11:44:42.036Z,8.88
2018-12-11T11:45:41.975Z,9.04
2018-12-11T11:46:41.919Z,8.93
2018-12-11T11:47:41.857Z,8.91
2018-12-11T11:48:41.798Z,8.94
2018-12-11T11:49:41.737Z,8.94
2018-12-11T11:50:41.679Z,8.93
2018-12-11T11:51:41.621Z,8.97
2018-12-11T11:52:41.558Z,8.94
2018-12-11T11:53:41.503Z,8.88
2018-12-11T11:54:41.438Z,8.93
2018-12-11T11:55:41.475Z,8.97
2018-12-11T11:56:41.320Z,8.93
2018-12-11T11:57:41.260Z,8.93
2018-12-11T11:58:41.199Z,8.97
2018-12-11T11:59:41.141Z,8.96
2018-12-11T12:00:41.085Z,8.96
2018-12-11T12:01:41.020Z,8.96
2018-12-11T12:02:40.962Z,8.87
2018-12-11T12:03:40.907Z,8.91
2018-12-11T12:04:40.841Z,8.96
2018-12-11T12:05:40.782Z,8.93
2018-12-11T12:06:40.723Z,8.96
2018-12-11T12:07:40.663Z,8.94
2018-12-11T12:08:40.603Z,8.97
2018-12-11T12:09:40.548Z,8.96
2018-12-11T12:10:40.486Z,8.96
2018-12-11T12:11:40.429Z,8.96
2018-12-11T12:12:40.363Z,8.94
2018-12-11T12:13:40.312Z,9.01
2018-12-11T12:14:40.258Z,8.91
2018-12-11T12:15:40.185Z,8.96
2018-12-11T12:16:40.131Z,9.01
2018-12-11T12:17:40.067Z,8.94
2018-12-11T12:18:40.006Z,8.96
2018-12-11T12:19:39.950Z,8.96
2018-12-11T12:20:39.887Z,8.90
2018-12-11T12:21:39.831Z,8.94
2018-12-11T12:22:39.768Z,8.99
2018-12-11T12:23:39.709Z,8.93
2018-12-11T12:24:39.648Z,8.94
2018-12-11T12:25:39.589Z,8.97
2018-12-11T12:26:39.529Z,8.96
2018-12-11T12:27:39.475Z,8.96
2018-12-11T12:28:39.410Z,8.96
2018-12-11T12:29:39.350Z,8.99
2018-12-11T12:30:39.291Z,8.97
2018-12-11T12:31:39.230Z,8.94
2018-12-11T12:32:39.178Z,8.93
2018-12-11T12:33:39.111Z,8.97
2018-12-11T12:34:39.053Z,8.97
2018-12-11T12:35:38.992Z,8.96
2018-12-11T12:36:38.933Z,8.87
2018-12-11T12:37:38.872Z,8.94
2018-12-11T12:38:38.813Z,8.96
2018-12-11T12:39:38.761Z,8.93
2018-12-11T12:40:38.693Z,8.97
2018-12-11T12:41:38.636Z,8.91
2018-12-11T12:42:38.573Z,8.94
2018-12-11T12:43:38.513Z,8.97
2018-12-11T12:44:38.539Z,8.96
2018-12-11T12:45:38.396Z,8.96
2018-12-11T12:46:38.336Z,8.96
2018-12-11T12:47:38.276Z,8.99
2018-12-11T12:48:38.216Z,8.94
2018-12-11T12:49:38.160Z,8.97
2018-12-11T12:50:38.094Z,8.93
2018-12-11T12:51:38.036Z,8.96
2018-12-11T12:52:37.976Z,8.93
2018-12-11T12:53:37.924Z,8.96
2018-12-11T12:54:37.861Z,8.97
2018-12-11T12:55:37.800Z,8.97
2018-12-11T12:56:37.740Z,8.97
2018-12-11T12:57:37.679Z,8.91
2018-12-11T12:58:37.617Z,8.93
2018-12-11T12:59:37.561Z,8.93
2018-12-11T13:00:37.500Z,8.97
2018-12-11T13:01:37.440Z,8.96
2018-12-11T13:02:37.383Z,8.97
2018-12-11T13:03:37.321Z,8.93
2018-12-11T13:04:37.261Z,8.94
2018-12-11T13:05:37.202Z,8.97
2018-12-11T13:06:37.141Z,8.96
2018-12-11T13:07:37.087Z,8.93
2018-12-11T13:08:37.021Z,8.97
2018-12-11T13:09:36.971Z,8.97
2018-12-11T13:10:36.901Z,8.90
2018-12-11T13:11:36.845Z,8.96
2018-12-11T13:12:36.784Z,8.93
2018-12-11T13:13:36.725Z,8.96
2018-12-11T13:14:36.662Z,8.93
2018-12-11T13:15:36.603Z,8.90
2018-12-11T13:16:36.544Z,8.93
2018-12-11T13:17:36.484Z,8.97